sensor_id;sensor_type;location;lat;lon;timestamp;temperature;humidity
16154;DHT22;8182;55.648;13.208;2024-02-21T00:01:35;6.40;1.00
16154;DHT22;8182;55.648;13.208;2024-02-21T00:04:02;6.40;1.00
16154;DHT22;8182;55.648;13.208;2024-02-21T00:06:29;6.40;1.00
16154;DHT22;8182;55.648;13.208;2024-02-21T00:08:56;6.40;1.00
16154;DHT22;8182;55.648;13.208;2024-02-21T00:11:24;6.40;1.00
16154;DHT22;8182;55.648;13.208;2024-02-21T00:13:51;6.50;1.00
16154;DHT22;8182;55.648;13.208;2024-02-21T00:16:18;6.50;1.00
16154;DHT22;8182;55.648;13.208;2024-02-21T00:18:45;6.50;1.00
16154;DHT22;8182;55.648;13.208;2024-02-21T00:21:15;6.50;1.00
16154;DHT22;8182;55.648;13.208;2024-02-21T00:23:43;6.40;1.00
16154;DHT22;8182;55.648;13.208;2024-02-21T00:26:11;6.40;1.00
16154;DHT22;8182;55.648;13.208;2024-02-21T00:28:45;6.40;1.00
16154;DHT22;8182;55.648;13.208;2024-02-21T00:31:14;6.40;1.00
16154;DHT22;8182;55.648;13.208;2024-02-21T00:33:41;6.50;1.00
16154;DHT22;8182;55.648;13.208;2024-02-21T00:36:08;6.50;1.00
16154;DHT22;8182;55.648;13.208;2024-02-21T00:38:35;6.50;1.00
16154;DHT22;8182;55.648;13.208;2024-02-21T00:41:02;6.50;1.00
16154;DHT22;8182;55.648;13.208;2024-02-21T00:43:29;6.50;1.00
16154;DHT22;8182;55.648;13.208;2024-02-21T00:45:57;6.40;1.00
16154;DHT22;8182;55.648;13.208;2024-02-21T00:48:27;6.40;1.00
16154;DHT22;8182;55.648;13.208;2024-02-21T00:50:54;6.40;1.00
16154;DHT22;8182;55.648;13.208;2024-02-21T00:53:20;6.40;1.00
16154;DHT22;8182;55.648;13.208;2024-02-21T00:55:50;6.40;1.00
16154;DHT22;8182;55.648;13.208;2024-02-21T00:58:19;6.40;1.00
16154;DHT22;8182;55.648;13.208;2024-02-21T01:00:46;6.30;1.00
16154;DHT22;8182;55.648;13.208;2024-02-21T01:03:14;6.30;1.00
16154;DHT22;8182;55.648;13.208;2024-02-21T01:05:41;6.30;1.00
16154;DHT22;8182;55.648;13.208;2024-02-21T01:08:08;6.40;1.00
16154;DHT22;8182;55.648;13.208;2024-02-21T01:10:38;6.40;1.00
16154;DHT22;8182;55.648;13.208;2024-02-21T01:13:05;6.30;1.00
16154;DHT22;8182;55.648;13.208;2024-02-21T01:15:32;6.30;1.00
16154;DHT22;8182;55.648;13.208;2024-02-21T01:17:59;6.30;1.00
16154;DHT22;8182;55.648;13.208;2024-02-21T01:20:27;6.30;1.00
16154;DHT22;8182;55.648;13.208;2024-02-21T01:22:54;6.30;1.00
16154;DHT22;8182;55.648;13.208;2024-02-21T01:25:21;6.30;1.00
16154;DHT22;8182;55.648;13.208;2024-02-21T01:27:48;6.30;1.00
16154;DHT22;8182;55.648;13.208;2024-02-21T01:30:15;6.30;1.00
16154;DHT22;8182;55.648;13.208;2024-02-21T01:32:45;6.40;1.00
16154;DHT22;8182;55.648;13.208;2024-02-21T01:35:15;6.30;1.00
16154;DHT22;8182;55.648;13.208;2024-02-21T01:37:45;6.30;1.00
16154;DHT22;8182;55.648;13.208;2024-02-21T01:40:15;6.20;1.00
16154;DHT22;8182;55.648;13.208;2024-02-21T01:42:44;6.20;1.00
16154;DHT22;8182;55.648;13.208;2024-02-21T01:45:13;6.30;1.00
16154;DHT22;8182;55.648;13.208;2024-02-21T01:47:40;6.30;1.00
16154;DHT22;8182;55.648;13.208;2024-02-21T01:50:08;6.30;1.00
16154;DHT22;8182;55.648;13.208;2024-02-21T01:52:36;6.30;1.00
16154;DHT22;8182;55.648;13.208;2024-02-21T01:55:05;6.30;1.00
16154;DHT22;8182;55.648;13.208;2024-02-21T01:57:32;6.30;1.00
16154;DHT22;8182;55.648;13.208;2024-02-21T02:00:02;6.30;1.00
16154;DHT22;8182;55.648;13.208;2024-02-21T02:02:29;6.30;1.00
16154;DHT22;8182;55.648;13.208;2024-02-21T02:04:56;6.30;1.00
16154;DHT22;8182;55.648;13.208;2024-02-21T02:07:23;6.30;1.00
16154;DHT22;8182;55.648;13.208;2024-02-21T02:09:50;6.30;1.00
16154;DHT22;8182;55.648;13.208;2024-02-21T02:12:18;6.20;1.00
16154;DHT22;8182;55.648;13.208;2024-02-21T02:14:45;6.30;1.00
16154;DHT22;8182;55.648;13.208;2024-02-21T02:17:15;6.30;1.00
16154;DHT22;8182;55.648;13.208;2024-02-21T02:19:45;6.30;1.00
16154;DHT22;8182;55.648;13.208;2024-02-21T02:22:18;6.30;1.00
16154;DHT22;8182;55.648;13.208;2024-02-21T02:24:49;6.20;1.00
16154;DHT22;8182;55.648;13.208;2024-02-21T02:27:16;6.30;1.00
16154;DHT22;8182;55.648;13.208;2024-02-21T02:29:43;6.20;1.00
16154;DHT22;8182;55.648;13.208;2024-02-21T02:32:16;6.20;1.00
16154;DHT22;8182;55.648;13.208;2024-02-21T02:34:46;6.20;1.00
16154;DHT22;8182;55.648;13.208;2024-02-21T02:37:15;6.20;1.00
16154;DHT22;8182;55.648;13.208;2024-02-21T02:39:42;6.20;1.00
16154;DHT22;8182;55.648;13.208;2024-02-21T02:42:11;6.10;1.00
16154;DHT22;8182;55.648;13.208;2024-02-21T02:44:40;6.20;1.00
16154;DHT22;8182;55.648;13.208;2024-02-21T02:47:08;6.20;1.00
16154;DHT22;8182;55.648;13.208;2024-02-21T02:49:35;6.20;1.00
16154;DHT22;8182;55.648;13.208;2024-02-21T02:52:03;6.20;1.00
16154;DHT22;8182;55.648;13.208;2024-02-21T02:54:30;6.30;1.00
16154;DHT22;8182;55.648;13.208;2024-02-21T02:56:57;6.30;1.00
16154;DHT22;8182;55.648;13.208;2024-02-21T02:59:25;6.30;1.00
16154;DHT22;8182;55.648;13.208;2024-02-21T03:01:52;6.30;1.00
16154;DHT22;8182;55.648;13.208;2024-02-21T03:04:22;6.30;1.00
16154;DHT22;8182;55.648;13.208;2024-02-21T03:06:49;6.30;1.00
16154;DHT22;8182;55.648;13.208;2024-02-21T03:09:16;6.40;1.00
16154;DHT22;8182;55.648;13.208;2024-02-21T03:11:46;6.50;1.00
16154;DHT22;8182;55.648;13.208;2024-02-21T03:14:13;6.50;1.00
16154;DHT22;8182;55.648;13.208;2024-02-21T03:16:41;6.50;1.00
16154;DHT22;8182;55.648;13.208;2024-02-21T03:19:11;6.50;1.00
16154;DHT22;8182;55.648;13.208;2024-02-21T03:21:38;6.40;99.90
16154;DHT22;8182;55.648;13.208;2024-02-21T03:24:05;6.40;1.00
16154;DHT22;8182;55.648;13.208;2024-02-21T03:26:32;6.40;99.90
16154;DHT22;8182;55.648;13.208;2024-02-21T03:28:59;6.40;99.90
16154;DHT22;8182;55.648;13.208;2024-02-21T03:31:26;6.50;99.90
16154;DHT22;8182;55.648;13.208;2024-02-21T03:33:54;6.50;99.90
16154;DHT22;8182;55.648;13.208;2024-02-21T03:36:21;6.50;99.90
16154;DHT22;8182;55.648;13.208;2024-02-21T03:38:48;6.60;99.90
16154;DHT22;8182;55.648;13.208;2024-02-21T03:41:14;6.60;99.90
16154;DHT22;8182;55.648;13.208;2024-02-21T03:43:41;6.60;99.90
16154;DHT22;8182;55.648;13.208;2024-02-21T03:46:09;6.70;1.00
16154;DHT22;8182;55.648;13.208;2024-02-21T03:48:36;6.60;1.00
16154;DHT22;8182;55.648;13.208;2024-02-21T03:51:04;6.60;1.00
16154;DHT22;8182;55.648;13.208;2024-02-21T03:53:31;6.60;1.00
16154;DHT22;8182;55.648;13.208;2024-02-21T03:56:01;6.60;1.00
16154;DHT22;8182;55.648;13.208;2024-02-21T03:58:29;6.50;1.00
16154;DHT22;8182;55.648;13.208;2024-02-21T04:00:56;6.50;1.00
16154;DHT22;8182;55.648;13.208;2024-02-21T04:03:23;6.50;1.00
16154;DHT22;8182;55.648;13.208;2024-02-21T04:05:50;6.60;1.00
16154;DHT22;8182;55.648;13.208;2024-02-21T04:08:19;6.50;1.00
16154;DHT22;8182;55.648;13.208;2024-02-21T04:10:45;6.50;1.00
16154;DHT22;8182;55.648;13.208;2024-02-21T04:13:13;6.50;1.00
16154;DHT22;8182;55.648;13.208;2024-02-21T04:15:40;6.50;1.00
16154;DHT22;8182;55.648;13.208;2024-02-21T04:18:07;6.40;1.00
16154;DHT22;8182;55.648;13.208;2024-02-21T04:20:34;6.40;1.00
16154;DHT22;8182;55.648;13.208;2024-02-21T04:23:01;6.40;1.00
16154;DHT22;8182;55.648;13.208;2024-02-21T04:25:29;6.50;1.00
16154;DHT22;8182;55.648;13.208;2024-02-21T04:27:59;6.50;1.00
16154;DHT22;8182;55.648;13.208;2024-02-21T04:30:26;6.50;1.00
16154;DHT22;8182;55.648;13.208;2024-02-21T04:32:53;6.60;1.00
16154;DHT22;8182;55.648;13.208;2024-02-21T04:35:20;6.60;1.00
16154;DHT22;8182;55.648;13.208;2024-02-21T04:37:47;6.60;1.00
16154;DHT22;8182;55.648;13.208;2024-02-21T04:40:15;6.60;1.00
16154;DHT22;8182;55.648;13.208;2024-02-21T04:42:43;6.60;1.00
16154;DHT22;8182;55.648;13.208;2024-02-21T04:45:10;6.60;1.00
16154;DHT22;8182;55.648;13.208;2024-02-21T04:47:37;6.60;1.00
16154;DHT22;8182;55.648;13.208;2024-02-21T04:50:05;6.60;1.00
16154;DHT22;8182;55.648;13.208;2024-02-21T04:52:32;6.60;1.00
16154;DHT22;8182;55.648;13.208;2024-02-21T04:54:58;6.60;1.00
16154;DHT22;8182;55.648;13.208;2024-02-21T04:57:28;6.60;1.00
16154;DHT22;8182;55.648;13.208;2024-02-21T04:59:59;6.60;1.00
16154;DHT22;8182;55.648;13.208;2024-02-21T05:02:26;6.70;1.00
16154;DHT22;8182;55.648;13.208;2024-02-21T05:04:53;6.80;1.00
16154;DHT22;8182;55.648;13.208;2024-02-21T05:07:20;6.80;1.00
16154;DHT22;8182;55.648;13.208;2024-02-21T05:09:47;6.90;1.00
16154;DHT22;8182;55.648;13.208;2024-02-21T05:12:14;6.90;1.00
16154;DHT22;8182;55.648;13.208;2024-02-21T05:14:40;7.00;1.00
16154;DHT22;8182;55.648;13.208;2024-02-21T05:17:09;7.00;4.70
16154;DHT22;8182;55.648;13.208;2024-02-21T05:19:36;7.00;7.60
16154;DHT22;8182;55.648;13.208;2024-02-21T05:22:03;7.00;10.10
16154;DHT22;8182;55.648;13.208;2024-02-21T05:24:30;7.00;4.90
16154;DHT22;8182;55.648;13.208;2024-02-21T05:26:57;7.00;7.90
16154;DHT22;8182;55.648;13.208;2024-02-21T05:29:24;7.00;9.60
16154;DHT22;8182;55.648;13.208;2024-02-21T05:32:00;6.90;11.60
16154;DHT22;8182;55.648;13.208;2024-02-21T05:34:30;6.90;13.90
16154;DHT22;8182;55.648;13.208;2024-02-21T05:36:57;6.90;16.20
16154;DHT22;8182;55.648;13.208;2024-02-21T05:39:25;6.90;17.50
16154;DHT22;8182;55.648;13.208;2024-02-21T05:41:52;6.80;19.00
16154;DHT22;8182;55.648;13.208;2024-02-21T05:44:19;6.80;21.70
16154;DHT22;8182;55.648;13.208;2024-02-21T05:46:47;6.90;24.20
16154;DHT22;8182;55.648;13.208;2024-02-21T05:49:14;6.80;25.30
16154;DHT22;8182;55.648;13.208;2024-02-21T05:51:44;6.80;27.10
16154;DHT22;8182;55.648;13.208;2024-02-21T05:54:11;6.70;28.10
16154;DHT22;8182;55.648;13.208;2024-02-21T05:56:44;6.60;28.70
16154;DHT22;8182;55.648;13.208;2024-02-21T05:59:14;6.70;30.00
16154;DHT22;8182;55.648;13.208;2024-02-21T06:01:55;6.70;33.10
16154;DHT22;8182;55.648;13.208;2024-02-21T06:04:26;6.70;35.00
16154;DHT22;8182;55.648;13.208;2024-02-21T06:06:54;6.60;35.20
16154;DHT22;8182;55.648;13.208;2024-02-21T06:09:23;6.60;36.40
16154;DHT22;8182;55.648;13.208;2024-02-21T06:11:53;6.50;36.60
16154;DHT22;8182;55.648;13.208;2024-02-21T06:14:20;6.50;37.10
16154;DHT22;8182;55.648;13.208;2024-02-21T06:16:46;6.50;38.00
16154;DHT22;8182;55.648;13.208;2024-02-21T06:19:13;6.40;36.10
16154;DHT22;8182;55.648;13.208;2024-02-21T06:21:40;6.30;35.40
16154;DHT22;8182;55.648;13.208;2024-02-21T06:24:08;6.30;36.40
16154;DHT22;8182;55.648;13.208;2024-02-21T06:26:35;6.30;37.60
16154;DHT22;8182;55.648;13.208;2024-02-21T06:29:02;6.20;37.50
16154;DHT22;8182;55.648;13.208;2024-02-21T06:31:29;6.30;39.50
16154;DHT22;8182;55.648;13.208;2024-02-21T06:33:57;6.30;40.00
16154;DHT22;8182;55.648;13.208;2024-02-21T06:36:24;6.30;41.00
16154;DHT22;8182;55.648;13.208;2024-02-21T06:38:51;6.30;41.70
16154;DHT22;8182;55.648;13.208;2024-02-21T06:41:19;6.40;43.60
16154;DHT22;8182;55.648;13.208;2024-02-21T06:43:47;6.50;46.80
16154;DHT22;8182;55.648;13.208;2024-02-21T06:46:23;6.60;48.10
16154;DHT22;8182;55.648;13.208;2024-02-21T06:48:50;6.60;48.50
16154;DHT22;8182;55.648;13.208;2024-02-21T06:51:17;6.60;48.60
16154;DHT22;8182;55.648;13.208;2024-02-21T06:53:43;6.60;49.80
16154;DHT22;8182;55.648;13.208;2024-02-21T06:56:10;6.70;50.60
16154;DHT22;8182;55.648;13.208;2024-02-21T06:58:38;6.60;50.30
16154;DHT22;8182;55.648;13.208;2024-02-21T07:01:06;6.70;51.70
16154;DHT22;8182;55.648;13.208;2024-02-21T07:03:33;6.70;51.30
16154;DHT22;8182;55.648;13.208;2024-02-21T07:06:00;6.70;51.60
16154;DHT22;8182;55.648;13.208;2024-02-21T07:08:29;6.70;52.00
16154;DHT22;8182;55.648;13.208;2024-02-21T07:10:56;6.70;52.10
16154;DHT22;8182;55.648;13.208;2024-02-21T07:13:26;6.90;54.60
16154;DHT22;8182;55.648;13.208;2024-02-21T07:15:54;6.80;52.90
16154;DHT22;8182;55.648;13.208;2024-02-21T07:18:21;6.80;52.80
16154;DHT22;8182;55.648;13.208;2024-02-21T07:20:48;6.80;52.60
16154;DHT22;8182;55.648;13.208;2024-02-21T07:23:14;6.90;52.20
16154;DHT22;8182;55.648;13.208;2024-02-21T07:25:41;6.90;51.50
16154;DHT22;8182;55.648;13.208;2024-02-21T07:28:17;6.90;49.90
16154;DHT22;8182;55.648;13.208;2024-02-21T07:30:44;7.00;48.20
16154;DHT22;8182;55.648;13.208;2024-02-21T07:33:15;6.90;45.10
16154;DHT22;8182;55.648;13.208;2024-02-21T07:35:42;6.80;39.90
16154;DHT22;8182;55.648;13.208;2024-02-21T07:38:11;6.70;34.00
16154;DHT22;8182;55.648;13.208;2024-02-21T07:40:39;7.00;32.00
16154;DHT22;8182;55.648;13.208;2024-02-21T07:43:06;7.20;29.20
16154;DHT22;8182;55.648;13.208;2024-02-21T07:45:33;7.40;22.90
16154;DHT22;8182;55.648;13.208;2024-02-21T07:48:00;7.20;12.20
16154;DHT22;8182;55.648;13.208;2024-02-21T07:50:29;7.00;1.00
16154;DHT22;8182;55.648;13.208;2024-02-21T07:52:56;7.10;1.00
16154;DHT22;8182;55.648;13.208;2024-02-21T07:55:22;7.10;1.00
16154;DHT22;8182;55.648;13.208;2024-02-21T07:57:56;7.10;1.00
16154;DHT22;8182;55.648;13.208;2024-02-21T08:00:23;7.10;1.00
16154;DHT22;8182;55.648;13.208;2024-02-21T08:02:50;7.00;1.00
16154;DHT22;8182;55.648;13.208;2024-02-21T08:05:16;6.90;1.00
16154;DHT22;8182;55.648;13.208;2024-02-21T08:07:45;6.80;1.00
16154;DHT22;8182;55.648;13.208;2024-02-21T08:10:15;6.70;1.00
16154;DHT22;8182;55.648;13.208;2024-02-21T08:12:41;6.70;1.00
16154;DHT22;8182;55.648;13.208;2024-02-21T08:15:09;6.70;1.00
16154;DHT22;8182;55.648;13.208;2024-02-21T08:17:36;6.80;1.00
16154;DHT22;8182;55.648;13.208;2024-02-21T08:20:03;6.80;1.00
16154;DHT22;8182;55.648;13.208;2024-02-21T08:22:31;6.90;1.00
16154;DHT22;8182;55.648;13.208;2024-02-21T08:24:59;6.90;1.00
16154;DHT22;8182;55.648;13.208;2024-02-21T08:27:26;6.80;1.00
16154;DHT22;8182;55.648;13.208;2024-02-21T08:29:53;6.80;1.00
16154;DHT22;8182;55.648;13.208;2024-02-21T08:32:20;6.70;1.00
16154;DHT22;8182;55.648;13.208;2024-02-21T08:34:46;6.60;1.00
16154;DHT22;8182;55.648;13.208;2024-02-21T08:37:16;6.60;1.00
16154;DHT22;8182;55.648;13.208;2024-02-21T08:39:43;6.60;1.00
16154;DHT22;8182;55.648;13.208;2024-02-21T08:42:11;6.60;1.00
16154;DHT22;8182;55.648;13.208;2024-02-21T08:44:40;6.60;1.00
16154;DHT22;8182;55.648;13.208;2024-02-21T08:47:10;6.60;1.00
16154;DHT22;8182;55.648;13.208;2024-02-21T08:49:37;6.50;1.00
16154;DHT22;8182;55.648;13.208;2024-02-21T08:52:04;6.50;1.00
16154;DHT22;8182;55.648;13.208;2024-02-21T08:54:31;6.40;1.00
16154;DHT22;8182;55.648;13.208;2024-02-21T08:56:59;6.40;1.00
16154;DHT22;8182;55.648;13.208;2024-02-21T08:59:27;6.50;1.00
16154;DHT22;8182;55.648;13.208;2024-02-21T09:01:54;6.50;1.00
16154;DHT22;8182;55.648;13.208;2024-02-21T09:04:21;6.60;1.00
16154;DHT22;8182;55.648;13.208;2024-02-21T09:06:48;6.60;1.00
16154;DHT22;8182;55.648;13.208;2024-02-21T09:09:20;6.60;1.00
16154;DHT22;8182;55.648;13.208;2024-02-21T09:11:47;6.40;1.00
16154;DHT22;8182;55.648;13.208;2024-02-21T09:14:13;6.50;1.00
16154;DHT22;8182;55.648;13.208;2024-02-21T09:16:42;6.40;1.00
16154;DHT22;8182;55.648;13.208;2024-02-21T09:19:09;6.40;1.00
16154;DHT22;8182;55.648;13.208;2024-02-21T09:21:36;6.40;1.00
16154;DHT22;8182;55.648;13.208;2024-02-21T09:24:04;6.30;1.00
16154;DHT22;8182;55.648;13.208;2024-02-21T09:26:31;6.40;1.00
16154;DHT22;8182;55.648;13.208;2024-02-21T09:28:58;6.40;1.00
16154;DHT22;8182;55.648;13.208;2024-02-21T09:31:28;6.40;1.00
16154;DHT22;8182;55.648;13.208;2024-02-21T09:33:56;6.40;1.00
16154;DHT22;8182;55.648;13.208;2024-02-21T09:36:23;6.40;1.00
16154;DHT22;8182;55.648;13.208;2024-02-21T09:38:49;6.40;1.00
16154;DHT22;8182;55.648;13.208;2024-02-21T09:41:17;6.40;1.00
16154;DHT22;8182;55.648;13.208;2024-02-21T09:43:45;6.30;1.00
16154;DHT22;8182;55.648;13.208;2024-02-21T09:46:16;6.30;1.00
16154;DHT22;8182;55.648;13.208;2024-02-21T09:49:01;6.30;1.00
16154;DHT22;8182;55.648;13.208;2024-02-21T09:51:33;6.30;1.00
16154;DHT22;8182;55.648;13.208;2024-02-21T09:54:01;6.30;1.00
16154;DHT22;8182;55.648;13.208;2024-02-21T09:56:29;6.40;1.00
16154;DHT22;8182;55.648;13.208;2024-02-21T09:58:57;6.40;1.00
16154;DHT22;8182;55.648;13.208;2024-02-21T10:01:25;6.40;1.00
16154;DHT22;8182;55.648;13.208;2024-02-21T10:03:51;6.40;1.00
16154;DHT22;8182;55.648;13.208;2024-02-21T10:06:26;6.40;1.00
16154;DHT22;8182;55.648;13.208;2024-02-21T10:08:53;6.40;1.00
16154;DHT22;8182;55.648;13.208;2024-02-21T10:11:23;6.30;1.00
16154;DHT22;8182;55.648;13.208;2024-02-21T10:13:50;6.30;1.00
16154;DHT22;8182;55.648;13.208;2024-02-21T10:16:17;6.30;3.40
16154;DHT22;8182;55.648;13.208;2024-02-21T10:18:44;6.30;12.20
16154;DHT22;8182;55.648;13.208;2024-02-21T10:21:11;6.40;21.20
16154;DHT22;8182;55.648;13.208;2024-02-21T10:23:45;6.40;34.00
16154;DHT22;8182;55.648;13.208;2024-02-21T10:26:15;6.50;52.40
16154;DHT22;8182;55.648;13.208;2024-02-21T10:28:46;6.50;78.50
16154;DHT22;8182;55.648;13.208;2024-02-21T10:31:22;6.50;86.10
16154;DHT22;8182;55.648;13.208;2024-02-21T10:33:54;6.60;99.90
16154;DHT22;8182;55.648;13.208;2024-02-21T10:36:21;6.70;1.00
16154;DHT22;8182;55.648;13.208;2024-02-21T10:38:49;6.70;1.00
16154;DHT22;8182;55.648;13.208;2024-02-21T10:41:16;6.70;1.00
16154;DHT22;8182;55.648;13.208;2024-02-21T10:43:48;6.80;1.00
16154;DHT22;8182;55.648;13.208;2024-02-21T10:46:18;6.70;1.00
16154;DHT22;8182;55.648;13.208;2024-02-21T10:48:46;6.70;1.00
16154;DHT22;8182;55.648;13.208;2024-02-21T10:51:17;6.70;1.00
16154;DHT22;8182;55.648;13.208;2024-02-21T10:53:50;6.60;1.00
16154;DHT22;8182;55.648;13.208;2024-02-21T10:56:22;6.90;1.00
16154;DHT22;8182;55.648;13.208;2024-02-21T10:58:53;6.90;1.00
16154;DHT22;8182;55.648;13.208;2024-02-21T11:01:21;7.00;1.00
16154;DHT22;8182;55.648;13.208;2024-02-21T11:03:51;7.00;1.00
16154;DHT22;8182;55.648;13.208;2024-02-21T11:06:20;7.00;1.00
16154;DHT22;8182;55.648;13.208;2024-02-21T11:08:48;7.10;1.00
16154;DHT22;8182;55.648;13.208;2024-02-21T11:11:32;7.10;1.00
16154;DHT22;8182;55.648;13.208;2024-02-21T11:14:09;7.20;1.00
16154;DHT22;8182;55.648;13.208;2024-02-21T11:16:37;7.30;1.00
16154;DHT22;8182;55.648;13.208;2024-02-21T11:19:09;7.30;1.00
16154;DHT22;8182;55.648;13.208;2024-02-21T11:21:37;7.30;1.00
16154;DHT22;8182;55.648;13.208;2024-02-21T11:24:06;7.30;1.00
16154;DHT22;8182;55.648;13.208;2024-02-21T11:26:33;7.30;1.00
16154;DHT22;8182;55.648;13.208;2024-02-21T11:29:00;7.20;1.00
16154;DHT22;8182;55.648;13.208;2024-02-21T11:31:38;7.30;1.00
16154;DHT22;8182;55.648;13.208;2024-02-21T11:34:08;7.40;1.00
16154;DHT22;8182;55.648;13.208;2024-02-21T11:36:36;7.40;1.00
16154;DHT22;8182;55.648;13.208;2024-02-21T11:39:05;7.50;1.00
16154;DHT22;8182;55.648;13.208;2024-02-21T11:41:32;7.70;1.00
16154;DHT22;8182;55.648;13.208;2024-02-21T11:43:59;7.70;1.00
16154;DHT22;8182;55.648;13.208;2024-02-21T11:46:26;7.70;1.00
16154;DHT22;8182;55.648;13.208;2024-02-21T11:48:53;7.70;1.00
16154;DHT22;8182;55.648;13.208;2024-02-21T11:51:25;7.60;1.00
16154;DHT22;8182;55.648;13.208;2024-02-21T11:53:52;7.50;1.00
16154;DHT22;8182;55.648;13.208;2024-02-21T11:56:24;7.50;1.00
16154;DHT22;8182;55.648;13.208;2024-02-21T11:58:51;7.50;1.00
16154;DHT22;8182;55.648;13.208;2024-02-21T12:01:18;7.60;1.00
16154;DHT22;8182;55.648;13.208;2024-02-21T12:03:45;7.60;1.00
16154;DHT22;8182;55.648;13.208;2024-02-21T12:06:16;7.90;1.00
16154;DHT22;8182;55.648;13.208;2024-02-21T12:08:47;7.80;1.00
16154;DHT22;8182;55.648;13.208;2024-02-21T12:11:19;7.70;1.00
16154;DHT22;8182;55.648;13.208;2024-02-21T12:13:47;7.60;1.00
16154;DHT22;8182;55.648;13.208;2024-02-21T12:16:17;7.60;1.00
16154;DHT22;8182;55.648;13.208;2024-02-21T12:18:54;7.50;1.00
16154;DHT22;8182;55.648;13.208;2024-02-21T12:21:24;7.50;1.00
16154;DHT22;8182;55.648;13.208;2024-02-21T12:23:51;7.50;1.00
16154;DHT22;8182;55.648;13.208;2024-02-21T12:26:19;7.50;1.00
16154;DHT22;8182;55.648;13.208;2024-02-21T12:28:47;7.60;1.00
16154;DHT22;8182;55.648;13.208;2024-02-21T12:31:14;7.60;1.00
16154;DHT22;8182;55.648;13.208;2024-02-21T12:33:42;7.90;1.00
16154;DHT22;8182;55.648;13.208;2024-02-21T12:36:11;8.10;1.00
16154;DHT22;8182;55.648;13.208;2024-02-21T12:38:38;8.20;1.00
16154;DHT22;8182;55.648;13.208;2024-02-21T12:41:08;8.50;1.00
16154;DHT22;8182;55.648;13.208;2024-02-21T12:43:35;8.40;1.00
16154;DHT22;8182;55.648;13.208;2024-02-21T12:46:03;8.50;1.00
16154;DHT22;8182;55.648;13.208;2024-02-21T12:48:30;8.50;1.00
16154;DHT22;8182;55.648;13.208;2024-02-21T12:50:58;8.50;1.00
16154;DHT22;8182;55.648;13.208;2024-02-21T12:53:25;8.50;1.00
16154;DHT22;8182;55.648;13.208;2024-02-21T12:55:51;8.30;1.00
16154;DHT22;8182;55.648;13.208;2024-02-21T12:58:20;8.30;1.00
16154;DHT22;8182;55.648;13.208;2024-02-21T13:00:48;8.20;1.00
16154;DHT22;8182;55.648;13.208;2024-02-21T13:03:16;8.10;1.00
16154;DHT22;8182;55.648;13.208;2024-02-21T13:05:45;8.10;1.00
16154;DHT22;8182;55.648;13.208;2024-02-21T13:08:13;8.40;1.00
16154;DHT22;8182;55.648;13.208;2024-02-21T13:10:40;8.30;1.00
16154;DHT22;8182;55.648;13.208;2024-02-21T13:13:07;8.40;1.00
16154;DHT22;8182;55.648;13.208;2024-02-21T13:15:34;8.40;1.00
16154;DHT22;8182;55.648;13.208;2024-02-21T13:18:03;8.40;1.00
16154;DHT22;8182;55.648;13.208;2024-02-21T13:20:31;8.20;1.00
16154;DHT22;8182;55.648;13.208;2024-02-21T13:22:58;8.30;1.00
16154;DHT22;8182;55.648;13.208;2024-02-21T13:25:25;8.40;1.00
16154;DHT22;8182;55.648;13.208;2024-02-21T13:27:52;8.40;1.00
16154;DHT22;8182;55.648;13.208;2024-02-21T13:30:19;8.60;1.00
16154;DHT22;8182;55.648;13.208;2024-02-21T13:32:45;8.60;1.00
16154;DHT22;8182;55.648;13.208;2024-02-21T13:35:15;8.80;1.00
16154;DHT22;8182;55.648;13.208;2024-02-21T13:37:44;8.70;1.00
16154;DHT22;8182;55.648;13.208;2024-02-21T13:40:11;8.70;1.00
16154;DHT22;8182;55.648;13.208;2024-02-21T13:42:40;8.60;1.00
16154;DHT22;8182;55.648;13.208;2024-02-21T13:45:09;8.40;1.00
16154;DHT22;8182;55.648;13.208;2024-02-21T13:47:36;8.40;1.00
16154;DHT22;8182;55.648;13.208;2024-02-21T13:50:05;8.30;1.00
16154;DHT22;8182;55.648;13.208;2024-02-21T13:52:34;8.10;1.00
16154;DHT22;8182;55.648;13.208;2024-02-21T13:55:04;8.30;1.00
16154;DHT22;8182;55.648;13.208;2024-02-21T13:57:34;8.30;1.00
16154;DHT22;8182;55.648;13.208;2024-02-21T14:00:00;8.20;1.00
16154;DHT22;8182;55.648;13.208;2024-02-21T14:02:28;8.40;1.00
16154;DHT22;8182;55.648;13.208;2024-02-21T14:04:55;8.30;1.00
16154;DHT22;8182;55.648;13.208;2024-02-21T14:07:21;8.40;1.00
16154;DHT22;8182;55.648;13.208;2024-02-21T14:09:48;8.40;1.00
16154;DHT22;8182;55.648;13.208;2024-02-21T14:12:17;8.30;1.00
16154;DHT22;8182;55.648;13.208;2024-02-21T14:14:46;8.30;1.00
16154;DHT22;8182;55.648;13.208;2024-02-21T14:17:16;8.20;1.00
16154;DHT22;8182;55.648;13.208;2024-02-21T14:19:45;8.20;1.00
16154;DHT22;8182;55.648;13.208;2024-02-21T14:22:15;8.30;1.00
16154;DHT22;8182;55.648;13.208;2024-02-21T14:24:42;8.20;1.00
16154;DHT22;8182;55.648;13.208;2024-02-21T14:27:09;8.00;1.00
16154;DHT22;8182;55.648;13.208;2024-02-21T14:29:39;7.90;1.00
16154;DHT22;8182;55.648;13.208;2024-02-21T14:32:06;7.90;1.00
16154;DHT22;8182;55.648;13.208;2024-02-21T14:34:35;7.90;1.00
16154;DHT22;8182;55.648;13.208;2024-02-21T14:37:02;8.00;1.00
16154;DHT22;8182;55.648;13.208;2024-02-21T14:39:29;8.00;1.00
16154;DHT22;8182;55.648;13.208;2024-02-21T14:41:58;8.10;1.00
16154;DHT22;8182;55.648;13.208;2024-02-21T14:44:25;8.00;1.00
16154;DHT22;8182;55.648;13.208;2024-02-21T14:46:57;8.00;1.00
16154;DHT22;8182;55.648;13.208;2024-02-21T14:49:25;7.90;1.00
16154;DHT22;8182;55.648;13.208;2024-02-21T14:51:54;7.90;1.00
16154;DHT22;8182;55.648;13.208;2024-02-21T14:54:20;7.80;1.00
16154;DHT22;8182;55.648;13.208;2024-02-21T14:56:48;7.70;1.00
16154;DHT22;8182;55.648;13.208;2024-02-21T14:59:15;7.70;1.00
16154;DHT22;8182;55.648;13.208;2024-02-21T15:01:45;7.50;1.00
16154;DHT22;8182;55.648;13.208;2024-02-21T15:04:13;7.60;1.00
16154;DHT22;8182;55.648;13.208;2024-02-21T15:06:40;7.60;1.00
16154;DHT22;8182;55.648;13.208;2024-02-21T15:09:07;7.60;1.00
16154;DHT22;8182;55.648;13.208;2024-02-21T15:11:34;7.50;1.00
16154;DHT22;8182;55.648;13.208;2024-02-21T15:14:01;7.40;1.00
16154;DHT22;8182;55.648;13.208;2024-02-21T15:16:27;7.30;1.00
16154;DHT22;8182;55.648;13.208;2024-02-21T15:18:54;7.20;1.00
16154;DHT22;8182;55.648;13.208;2024-02-21T15:21:23;7.10;1.00
16154;DHT22;8182;55.648;13.208;2024-02-21T15:23:49;7.10;1.00
16154;DHT22;8182;55.648;13.208;2024-02-21T15:26:16;7.10;1.00
16154;DHT22;8182;55.648;13.208;2024-02-21T15:28:43;7.10;1.00
16154;DHT22;8182;55.648;13.208;2024-02-21T15:31:19;7.00;1.00
16154;DHT22;8182;55.648;13.208;2024-02-21T15:33:48;6.90;1.00
16154;DHT22;8182;55.648;13.208;2024-02-21T15:36:15;6.80;1.00
16154;DHT22;8182;55.648;13.208;2024-02-21T15:38:45;6.60;1.00
16154;DHT22;8182;55.648;13.208;2024-02-21T15:41:13;6.50;1.00
16154;DHT22;8182;55.648;13.208;2024-02-21T15:43:40;6.50;1.00
16154;DHT22;8182;55.648;13.208;2024-02-21T15:46:11;6.50;1.00
16154;DHT22;8182;55.648;13.208;2024-02-21T15:48:38;6.40;1.00
16154;DHT22;8182;55.648;13.208;2024-02-21T15:51:05;6.40;1.00
16154;DHT22;8182;55.648;13.208;2024-02-21T15:53:32;6.40;1.00
16154;DHT22;8182;55.648;13.208;2024-02-21T15:56:01;6.40;1.00
16154;DHT22;8182;55.648;13.208;2024-02-21T15:58:29;6.40;1.00
16154;DHT22;8182;55.648;13.208;2024-02-21T16:00:57;6.20;1.00
16154;DHT22;8182;55.648;13.208;2024-02-21T16:03:24;6.20;1.00
16154;DHT22;8182;55.648;13.208;2024-02-21T16:05:51;5.90;1.00